createdAt,value
2023-07-18T00:00:14.193Z,59.81
2023-07-18T00:00:28.801Z,59.67
2023-07-18T00:00:41.734Z,59.55
2023-07-18T00:00:53.760Z,59.58
2023-07-18T00:01:05.849Z,59.70
2023-07-18T00:01:18.094Z,60.02
2023-07-18T00:01:30.640Z,60.48
2023-07-18T00:01:43.058Z,60.48
2023-07-18T00:01:57.214Z,60.93
2023-07-18T00:02:09.340Z,60.60
2023-07-18T00:02:21.517Z,60.70
2023-07-18T00:02:35.049Z,61.79
2023-07-18T00:02:47.248Z,61.83
2023-07-18T00:03:00.095Z,61.91
2023-07-18T00:03:14.028Z,61.81
2023-07-18T00:03:26.135Z,61.44
2023-07-18T00:03:38.138Z,61.12
2023-07-18T00:03:50.146Z,61.56
2023-07-18T00:04:02.180Z,62.04
2023-07-18T00:04:14.404Z,61.94
2023-07-18T00:04:28.634Z,61.74
2023-07-18T00:04:40.906Z,61.90
2023-07-18T00:04:53.560Z,62.42
2023-07-18T00:05:06.088Z,62.70
2023-07-18T00:05:18.861Z,62.61
2023-07-18T00:05:31.488Z,61.81
2023-07-18T00:05:43.462Z,61.33
2023-07-18T00:05:56.110Z,61.40
2023-07-18T00:06:09.316Z,60.98
2023-07-18T00:06:22.328Z,60.79
2023-07-18T00:06:34.864Z,60.44
2023-07-18T00:06:46.986Z,60.22
2023-07-18T00:06:59.483Z,59.91
2023-07-18T00:07:11.443Z,59.86
2023-07-18T00:07:23.426Z,59.82
2023-07-18T00:07:35.558Z,59.88
2023-07-18T00:07:47.549Z,59.71
2023-07-18T00:07:59.505Z,59.58
2023-07-18T00:08:11.480Z,59.58
2023-07-18T00:08:23.552Z,59.48
2023-07-18T00:08:35.727Z,59.63
2023-07-18T00:08:47.684Z,59.58
2023-07-18T00:08:59.699Z,59.63
2023-07-18T00:09:12.384Z,59.58
2023-07-18T00:09:24.313Z,59.69
2023-07-18T00:09:39.421Z,59.79
2023-07-18T00:09:51.658Z,59.83
2023-07-18T00:10:04.476Z,59.72
2023-07-18T00:10:20.314Z,59.92
2023-07-18T00:10:32.397Z,59.77
2023-07-18T00:10:44.374Z,59.84
2023-07-18T00:10:56.345Z,59.76
2023-07-18T00:11:08.292Z,59.69
2023-07-18T00:11:22.844Z,59.40
2023-07-18T00:11:34.841Z,59.33
2023-07-18T00:11:47.457Z,59.29
2023-07-18T00:12:00.585Z,59.26
2023-07-18T00:12:12.680Z,59.22
2023-07-18T00:12:24.701Z,59.31
2023-07-18T00:12:37.370Z,59.46
2023-07-18T00:12:50.380Z,59.40
2023-07-18T00:13:04.011Z,59.41
2023-07-18T00:13:15.968Z,59.36
2023-07-18T00:13:27.899Z,59.30
2023-07-18T00:13:39.874Z,59.29
2023-07-18T00:13:51.894Z,59.30
2023-07-18T00:14:03.934Z,59.04
2023-07-18T00:14:16.364Z,59.12
2023-07-18T00:14:30.848Z,58.95
2023-07-18T00:14:42.900Z,59.61
2023-07-18T00:14:55.014Z,59.93
2023-07-18T00:15:08.283Z,59.79
2023-07-18T00:15:20.275Z,60.79
2023-07-18T00:15:32.988Z,60.49
2023-07-18T00:15:45.952Z,61.33
2023-07-18T00:15:57.988Z,61.26
2023-07-18T00:16:10.272Z,60.79
2023-07-18T00:16:22.299Z,60.59
2023-07-18T00:16:34.569Z,61.00
2023-07-18T00:16:46.717Z,60.53
2023-07-18T00:16:58.734Z,60.39
2023-07-18T00:17:10.719Z,60.43
2023-07-18T00:17:22.746Z,60.27
2023-07-18T00:17:35.250Z,60.32
2023-07-18T00:17:47.441Z,60.29
2023-07-18T00:18:00.363Z,60.18
2023-07-18T00:18:12.374Z,60.28
2023-07-18T00:18:24.427Z,60.02
2023-07-18T00:18:36.380Z,59.94
2023-07-18T00:18:49.027Z,60.06
2023-07-18T00:19:01.022Z,59.95
2023-07-18T00:19:13.432Z,59.92
2023-07-18T00:19:25.648Z,59.80
2023-07-18T00:19:38.640Z,60.35
2023-07-18T00:19:51.282Z,60.27
2023-07-18T00:20:13.584Z,60.42
2023-07-18T00:20:26.863Z,60.04
2023-07-18T00:20:42.450Z,60.25
2023-07-18T00:20:54.433Z,60.02
2023-07-18T00:21:06.650Z,59.98
2023-07-18T00:21:18.849Z,59.95
2023-07-18T00:21:31.123Z,59.94
2023-07-18T00:21:43.097Z,59.45
2023-07-18T00:21:55.671Z,59.56
2023-07-18T00:22:08.874Z,59.49
2023-07-18T00:22:21.140Z,59.55
2023-07-18T00:22:33.144Z,59.44
2023-07-18T00:22:49.454Z,59.83
2023-07-18T00:23:01.719Z,59.90
2023-07-18T00:23:13.852Z,59.96
2023-07-18T00:23:25.864Z,59.98
2023-07-18T00:23:37.816Z,60.04
2023-07-18T00:23:50.692Z,60.32
2023-07-18T00:24:03.507Z,60.21
2023-07-18T00:24:16.135Z,60.53
2023-07-18T00:24:30.016Z,60.53
2023-07-18T00:24:41.999Z,60.71
2023-07-18T00:24:54.003Z,60.61
2023-07-18T00:25:06.628Z,60.58
2023-07-18T00:25:20.735Z,60.47
2023-07-18T00:25:33.081Z,60.25
2023-07-18T00:25:45.123Z,60.38
2023-07-18T00:25:57.250Z,60.81
2023-07-18T00:26:09.742Z,61.05
2023-07-18T00:26:21.998Z,61.10
2023-07-18T00:26:34.570Z,60.96
2023-07-18T00:26:46.622Z,60.61
2023-07-18T00:26:58.629Z,60.56
2023-07-18T00:27:10.610Z,60.59
2023-07-18T00:27:22.609Z,60.61
2023-07-18T00:27:34.888Z,60.56
2023-07-18T00:27:48.345Z,61.11
2023-07-18T00:28:00.340Z,60.99
2023-07-18T00:28:12.281Z,61.11
2023-07-18T00:28:24.297Z,61.08
2023-07-18T00:28:36.778Z,61.29
2023-07-18T00:28:48.742Z,61.32
2023-07-18T00:29:00.790Z,61.43
2023-07-18T00:29:12.752Z,62.00
2023-07-18T00:29:24.776Z,61.63
2023-07-18T00:29:36.726Z,61.86
2023-07-18T00:29:48.653Z,61.60
2023-07-18T00:30:00.619Z,61.68
2023-07-18T00:30:16.211Z,61.65
2023-07-18T00:30:28.312Z,62.03
2023-07-18T00:30:40.294Z,62.51
2023-07-18T00:30:52.478Z,61.88
2023-07-18T00:31:04.530Z,61.51
2023-07-18T00:31:16.739Z,61.12
2023-07-18T00:31:28.949Z,60.90
2023-07-18T00:31:41.316Z,60.78
2023-07-18T00:31:53.446Z,60.60
2023-07-18T00:32:05.854Z,60.62
2023-07-18T00:32:17.881Z,60.71
2023-07-18T00:32:29.975Z,60.70
2023-07-18T00:32:43.402Z,60.66
2023-07-18T00:32:56.434Z,60.53
2023-07-18T00:33:08.547Z,61.09
2023-07-18T00:33:20.664Z,61.10
2023-07-18T00:33:32.647Z,61.01
2023-07-18T00:33:44.630Z,61.14
2023-07-18T00:33:56.614Z,60.95
2023-07-18T00:34:08.565Z,60.79
2023-07-18T00:34:20.512Z,60.83
2023-07-18T00:34:32.425Z,60.80
2023-07-18T00:34:45.376Z,61.67
2023-07-18T00:34:57.492Z,61.85
2023-07-18T00:35:10.054Z,62.15
2023-07-18T00:35:22.188Z,62.83
2023-07-18T00:35:35.570Z,62.34
2023-07-18T00:35:47.606Z,62.17
2023-07-18T00:35:59.647Z,62.13
2023-07-18T00:36:11.699Z,62.36
2023-07-18T00:36:23.677Z,62.09
2023-07-18T00:36:35.624Z,62.22
2023-07-18T00:36:47.545Z,62.10
2023-07-18T00:36:59.518Z,62.01
2023-07-18T00:37:11.751Z,62.08
2023-07-18T00:37:24.333Z,61.96
2023-07-18T00:37:36.304Z,62.13
2023-07-18T00:37:48.270Z,62.39
2023-07-18T00:38:00.903Z,62.43
2023-07-18T00:38:12.886Z,62.25
2023-07-18T00:38:24.889Z,61.97
2023-07-18T00:38:37.011Z,62.25
2023-07-18T00:38:50.102Z,63.22
2023-07-18T00:39:02.293Z,62.65
2023-07-18T00:39:14.352Z,62.22
2023-07-18T00:39:26.338Z,62.01
2023-07-18T00:39:38.309Z,61.81
2023-07-18T00:39:50.282Z,62.35
2023-07-18T00:40:03.797Z,62.50
2023-07-18T00:40:16.489Z,62.51
2023-07-18T00:40:28.510Z,61.97
2023-07-18T00:40:42.067Z,61.87
2023-07-18T00:40:54.181Z,61.68
2023-07-18T00:41:06.782Z,61.65
2023-07-18T00:41:19.043Z,61.65
2023-07-18T00:41:31.208Z,61.55
2023-07-18T00:41:43.635Z,62.35
2023-07-18T00:41:55.690Z,62.44
2023-07-18T00:42:07.847Z,62.25
2023-07-18T00:42:20.424Z,62.84
2023-07-18T00:42:32.474Z,63.08
2023-07-18T00:42:46.503Z,63.08
2023-07-18T00:42:58.605Z,63.23
2023-07-18T00:43:17.017Z,63.37
2023-07-18T00:43:33.860Z,63.38
2023-07-18T00:43:45.840Z,62.66
2023-07-18T00:43:57.813Z,62.53
2023-07-18T00:44:10.514Z,63.13
2023-07-18T00:44:22.561Z,63.70
2023-07-18T00:44:34.648Z,63.28
2023-07-18T00:44:50.435Z,63.42
2023-07-18T00:45:02.513Z,63.22
2023-07-18T00:45:14.989Z,63.39
2023-07-18T00:45:27.510Z,63.29
2023-07-18T00:45:40.128Z,63.40
2023-07-18T00:45:52.218Z,63.31
2023-07-18T00:46:06.086Z,63.19
2023-07-18T00:46:19.239Z,63.19
2023-07-18T00:46:32.272Z,63.19
2023-07-18T00:46:44.665Z,63.44
2023-07-18T00:46:56.731Z,63.39
2023-07-18T00:47:09.024Z,63.20
2023-07-18T00:47:23.260Z,63.02
2023-07-18T00:47:39.039Z,62.98
2023-07-18T00:47:52.842Z,62.92
2023-07-18T00:48:05.338Z,62.85
2023-07-18T00:48:18.657Z,63.11
2023-07-18T00:48:33.460Z,63.33
2023-07-18T00:48:45.731Z,63.12
2023-07-18T00:48:58.493Z,63.05
2023-07-18T00:49:10.759Z,62.97
2023-07-18T00:49:23.727Z,62.77
2023-07-18T00:49:36.424Z,62.77
2023-07-18T00:49:48.858Z,62.93
2023-07-18T00:50:00.973Z,62.95
2023-07-18T00:50:17.730Z,63.50
2023-07-18T00:50:29.801Z,63.74
2023-07-18T00:50:42.307Z,63.75
2023-07-18T00:50:54.700Z,64.06
2023-07-18T00:51:08.315Z,63.99
2023-07-18T00:51:20.710Z,63.61
2023-07-18T00:51:33.186Z,63.28
2023-07-18T00:51:45.531Z,63.16
2023-07-18T00:51:57.712Z,63.00
2023-07-18T00:52:10.136Z,62.79
2023-07-18T00:52:23.082Z,62.76
2023-07-18T00:52:37.359Z,62.57
2023-07-18T00:52:51.447Z,62.43
2023-07-18T00:53:03.649Z,62.87
2023-07-18T00:53:15.754Z,62.67
2023-07-18T00:53:28.687Z,62.38
2023-07-18T00:53:41.419Z,62.65
2023-07-18T00:53:54.128Z,62.51
2023-07-18T00:54:07.863Z,62.33
2023-07-18T00:54:22.281Z,62.05
2023-07-18T00:54:35.004Z,62.24
2023-07-18T00:54:47.065Z,62.66
2023-07-18T00:54:59.041Z,62.86
2023-07-18T00:55:12.281Z,62.66
2023-07-18T00:55:24.409Z,62.83
2023-07-18T00:55:37.516Z,62.86
2023-07-18T00:55:50.952Z,63.13
2023-07-18T00:56:03.177Z,62.80
2023-07-18T00:56:15.296Z,62.44
2023-07-18T00:56:27.861Z,62.34
2023-07-18T00:56:39.835Z,62.35
2023-07-18T00:56:51.946Z,62.47
2023-07-18T00:57:04.170Z,62.48
2023-07-18T00:57:16.191Z,62.53
2023-07-18T00:57:28.160Z,62.51
2023-07-18T00:57:41.277Z,62.46
2023-07-18T00:57:54.825Z,62.44
2023-07-18T00:58:06.841Z,62.52
2023-07-18T00:58:18.830Z,62.50
2023-07-18T00:58:31.386Z,62.52
2023-07-18T00:58:44.074Z,62.50
2023-07-18T00:58:56.324Z,62.44
2023-07-18T00:59:09.836Z,62.49
2023-07-18T00:59:24.149Z,62.51
2023-07-18T00:59:38.221Z,62.53
2023-07-18T00:59:50.595Z,62.47
2023-07-18T01:00:03.457Z,62.59
2023-07-18T01:00:17.960Z,62.54
2023-07-18T01:00:30.075Z,63.41
2023-07-18T01:00:42.510Z,63.25
2023-07-18T01:00:55.580Z,64.08
2023-07-18T01:01:08.178Z,64.35
2023-07-18T01:01:20.668Z,64.50
2023-07-18T01:01:33.943Z,64.06
2023-07-18T01:01:46.173Z,64.32
2023-07-18T01:01:58.480Z,64.47
2023-07-18T01:02:10.575Z,64.43
2023-07-18T01:02:22.894Z,64.37
2023-07-18T01:02:35.033Z,64.31
2023-07-18T01:02:47.516Z,64.27
2023-07-18T01:02:59.719Z,64.29
2023-07-18T01:03:12.055Z,64.52
2023-07-18T01:03:24.201Z,64.71
2023-07-18T01:03:39.836Z,64.86
2023-07-18T01:03:52.015Z,64.54
2023-07-18T01:04:04.183Z,64.34
2023-07-18T01:04:16.199Z,64.29
2023-07-18T01:04:28.187Z,64.12
2023-07-18T01:04:42.277Z,63.57
2023-07-18T01:04:54.254Z,63.29
2023-07-18T01:05:07.923Z,63.12
2023-07-18T01:05:20.652Z,62.73
2023-07-18T01:05:34.821Z,62.57
2023-07-18T01:05:46.871Z,62.71
2023-07-18T01:05:59.124Z,62.84
2023-07-18T01:06:12.696Z,62.80
2023-07-18T01:06:26.009Z,62.57
2023-07-18T01:06:38.284Z,62.55
2023-07-18T01:06:51.045Z,62.60
2023-07-18T01:07:03.258Z,62.81
2023-07-18T01:07:16.834Z,63.71
2023-07-18T01:07:28.964Z,64.42
2023-07-18T01:07:41.029Z,64.45
2023-07-18T01:07:53.086Z,64.37
2023-07-18T01:08:05.711Z,64.04
2023-07-18T01:08:17.696Z,63.89
2023-07-18T01:08:29.827Z,64.01
2023-07-18T01:08:41.861Z,63.82
2023-07-18T01:08:53.992Z,63.71
2023-07-18T01:09:06.450Z,63.44
2023-07-18T01:09:18.432Z,63.37
2023-07-18T01:09:31.532Z,63.56
2023-07-18T01:09:45.934Z,63.85
2023-07-18T01:10:27.053Z,63.57
2023-07-18T01:10:39.441Z,63.17
2023-07-18T01:10:51.468Z,63.41
2023-07-18T01:11:05.496Z,63.99
2023-07-18T01:11:17.759Z,63.52
2023-07-18T01:11:30.045Z,63.63
2023-07-18T01:11:42.584Z,63.77
2023-07-18T01:11:56.469Z,63.89
2023-07-18T01:12:08.919Z,63.89
2023-07-18T01:12:20.905Z,64.12
2023-07-18T01:12:32.928Z,63.88
2023-07-18T01:12:45.965Z,63.91
2023-07-18T01:12:59.845Z,63.60
2023-07-18T01:13:13.028Z,63.52
2023-07-18T01:13:25.087Z,63.59
2023-07-18T01:13:37.414Z,63.75
2023-07-18T01:13:49.400Z,63.67
2023-07-18T01:14:01.360Z,63.97
2023-07-18T01:14:13.352Z,63.57
2023-07-18T01:14:26.523Z,63.53
2023-07-18T01:14:38.469Z,63.42
2023-07-18T01:14:50.491Z,63.17
2023-07-18T01:15:02.580Z,63.04
2023-07-18T01:15:14.695Z,63.27
2023-07-18T01:15:30.884Z,63.83
2023-07-18T01:15:44.339Z,63.88
2023-07-18T01:15:56.372Z,64.38
2023-07-18T01:16:08.780Z,63.58
2023-07-18T01:16:20.773Z,63.81
2023-07-18T01:16:32.824Z,63.46
2023-07-18T01:16:44.800Z,63.32
2023-07-18T01:16:56.922Z,63.28
2023-07-18T01:17:10.655Z,63.34
2023-07-18T01:17:22.818Z,63.38
2023-07-18T01:17:35.104Z,64.21
2023-07-18T01:17:48.263Z,64.16
2023-07-18T01:18:03.449Z,64.76
2023-07-18T01:18:15.897Z,64.08
2023-07-18T01:18:27.905Z,63.70
2023-07-18T01:18:41.482Z,63.50
2023-07-18T01:18:56.491Z,63.36
2023-07-18T01:19:08.774Z,63.29
2023-07-18T01:19:21.045Z,63.62
2023-07-18T01:19:33.059Z,64.53
2023-07-18T01:19:45.068Z,64.66
2023-07-18T01:19:57.421Z,64.46
2023-07-18T01:20:14.192Z,64.48
2023-07-18T01:20:29.033Z,64.31
2023-07-18T01:20:45.702Z,64.24
2023-07-18T01:20:58.282Z,63.95
2023-07-18T01:21:18.385Z,64.22
2023-07-18T01:21:30.968Z,64.12
2023-07-18T01:21:43.356Z,64.16
2023-07-18T01:21:55.357Z,63.97
2023-07-18T01:22:09.614Z,63.85
2023-07-18T01:22:21.759Z,64.51
2023-07-18T01:22:33.877Z,64.90
2023-07-18T01:22:47.534Z,65.69
2023-07-18T01:23:01.790Z,65.06
2023-07-18T01:23:15.139Z,64.42
2023-07-18T01:23:28.160Z,65.01
2023-07-18T01:23:40.181Z,66.04
2023-07-18T01:23:52.136Z,65.30
2023-07-18T01:24:04.470Z,64.79
2023-07-18T01:24:16.418Z,64.71
2023-07-18T01:24:28.425Z,64.39
2023-07-18T01:24:40.415Z,64.83
2023-07-18T01:24:52.439Z,65.13
2023-07-18T01:25:04.795Z,64.40
2023-07-18T01:25:17.907Z,64.31
2023-07-18T01:25:31.118Z,64.21
2023-07-18T01:25:43.662Z,64.07
2023-07-18T01:25:56.879Z,64.04
2023-07-18T01:26:08.887Z,64.11
2023-07-18T01:26:20.826Z,63.91
2023-07-18T01:26:32.860Z,63.79
2023-07-18T01:26:44.922Z,63.54
2023-07-18T01:26:58.073Z,63.36
2023-07-18T01:27:10.168Z,63.23
2023-07-18T01:27:22.134Z,63.44
2023-07-18T01:27:38.049Z,63.60
2023-07-18T01:27:52.004Z,63.71
2023-07-18T01:28:04.569Z,64.34
2023-07-18T01:28:16.558Z,64.23
2023-07-18T01:28:28.761Z,65.18
2023-07-18T01:28:41.241Z,64.99
2023-07-18T01:28:53.252Z,64.89
2023-07-18T01:29:05.365Z,64.42
2023-07-18T01:29:17.355Z,64.04
2023-07-18T01:29:29.379Z,63.76
2023-07-18T01:29:41.391Z,63.70
2023-07-18T01:29:53.833Z,63.50
2023-07-18T01:30:06.771Z,63.51
2023-07-18T01:30:21.658Z,63.44
2023-07-18T01:30:33.639Z,63.08
2023-07-18T01:30:46.138Z,63.13
2023-07-18T01:30:58.144Z,63.27
2023-07-18T01:31:10.246Z,63.45
2023-07-18T01:31:22.524Z,63.28
2023-07-18T01:31:34.639Z,63.08
2023-07-18T01:31:46.727Z,63.10
2023-07-18T01:31:58.758Z,63.72
2023-07-18T01:32:10.756Z,64.46
2023-07-18T01:32:22.829Z,64.72
2023-07-18T01:32:37.490Z,64.10
2023-07-18T01:32:50.382Z,63.56
2023-07-18T01:33:02.558Z,63.44
2023-07-18T01:33:14.531Z,63.28
2023-07-18T01:33:28.335Z,63.46
2023-07-18T01:33:43.413Z,63.76
2023-07-18T01:33:55.435Z,63.82
2023-07-18T01:34:07.486Z,63.77
2023-07-18T01:34:19.496Z,63.93
2023-07-18T01:34:31.435Z,63.58
2023-07-18T01:34:43.367Z,63.67
2023-07-18T01:34:55.302Z,63.68
2023-07-18T01:35:09.232Z,64.59
2023-07-18T01:35:24.385Z,64.77
2023-07-18T01:35:36.361Z,63.95
2023-07-18T01:35:48.325Z,63.75
2023-07-18T01:36:01.023Z,63.94
2023-07-18T01:36:13.023Z,63.69
2023-07-18T01:36:29.546Z,63.66
2023-07-18T01:36:41.858Z,63.80
2023-07-18T01:36:53.967Z,63.67
2023-07-18T01:37:06.191Z,63.82
2023-07-18T01:37:18.143Z,63.85
2023-07-18T01:37:30.095Z,64.47
2023-07-18T01:37:46.039Z,63.93
2023-07-18T01:37:58.615Z,64.08
2023-07-18T01:38:10.751Z,64.29
2023-07-18T01:38:22.753Z,64.27
2023-07-18T01:38:36.473Z,64.17
2023-07-18T01:38:48.484Z,64.08
2023-07-18T01:39:00.698Z,64.20
2023-07-18T01:39:12.720Z,63.98
2023-07-18T01:39:24.874Z,63.97
2023-07-18T01:39:36.851Z,64.08
2023-07-18T01:39:48.829Z,63.64
2023-07-18T01:40:01.192Z,63.91
2023-07-18T01:40:16.690Z,63.59
2023-07-18T01:40:28.780Z,63.34
2023-07-18T01:40:40.911Z,63.14
2023-07-18T01:40:52.963Z,63.18
2023-07-18T01:41:05.010Z,63.33
2023-07-18T01:41:17.177Z,63.73
2023-07-18T01:41:30.848Z,63.12
2023-07-18T01:41:42.831Z,63.79
2023-07-18T01:41:54.898Z,65.06
2023-07-18T01:42:07.303Z,65.50
2023-07-18T01:42:20.296Z,65.56
2023-07-18T01:42:33.631Z,65.56
2023-07-18T01:42:45.602Z,64.62
2023-07-18T01:42:58.761Z,64.89
2023-07-18T01:43:10.777Z,65.53
2023-07-18T01:43:23.652Z,66.02
2023-07-18T01:43:38.544Z,65.82
2023-07-18T01:43:50.496Z,65.35
2023-07-18T01:44:02.431Z,65.03
2023-07-18T01:44:14.409Z,65.04
2023-07-18T01:44:26.492Z,65.11
2023-07-18T01:44:38.558Z,64.78
2023-07-18T01:44:50.598Z,64.45
2023-07-18T01:45:04.292Z,64.77
2023-07-18T01:45:16.486Z,64.68
2023-07-18T01:45:32.054Z,64.49
2023-07-18T01:45:44.032Z,64.45
2023-07-18T01:46:00.372Z,64.93
2023-07-18T01:46:12.496Z,64.79
2023-07-18T01:46:25.926Z,64.60
2023-07-18T01:46:37.926Z,64.55
2023-07-18T01:46:49.953Z,64.43
2023-07-18T01:47:03.764Z,65.11
2023-07-18T01:47:15.868Z,64.69
2023-07-18T01:47:28.056Z,64.33
2023-07-18T01:47:41.325Z,64.04
2023-07-18T01:47:53.764Z,64.11
2023-07-18T01:48:05.993Z,64.20
2023-07-18T01:48:19.240Z,63.89
2023-07-18T01:48:31.302Z,64.50
2023-07-18T01:48:43.349Z,64.05
2023-07-18T01:48:55.296Z,64.37
2023-07-18T01:49:07.387Z,64.49
2023-07-18T01:49:19.344Z,64.31
2023-07-18T01:49:32.266Z,64.22
2023-07-18T01:49:44.260Z,64.87
2023-07-18T01:49:56.197Z,64.92
2023-07-18T01:50:08.789Z,64.92
2023-07-18T01:50:20.911Z,64.38
2023-07-18T01:50:33.439Z,64.38
2023-07-18T01:50:45.447Z,64.22
2023-07-18T01:50:58.087Z,64.11
2023-07-18T01:51:10.119Z,64.07
2023-07-18T01:51:22.456Z,63.93
2023-07-18T01:51:34.862Z,64.53
2023-07-18T01:51:46.848Z,64.99
2023-07-18T01:52:01.246Z,64.92
2023-07-18T01:52:13.257Z,64.93
2023-07-18T01:52:27.102Z,65.60
2023-07-18T01:52:39.331Z,65.58
2023-07-18T01:52:51.366Z,65.39
2023-07-18T01:53:03.378Z,65.02
2023-07-18T01:53:15.340Z,65.34
2023-07-18T01:53:27.536Z,64.94
2023-07-18T01:53:39.522Z,64.74
2023-07-18T01:53:51.537Z,64.69
2023-07-18T01:54:05.096Z,64.99
2023-07-18T01:54:17.039Z,64.75
2023-07-18T01:54:30.260Z,64.72
2023-07-18T01:54:42.272Z,64.28
2023-07-18T01:54:59.127Z,64.19
2023-07-18T01:55:11.273Z,64.09
2023-07-18T01:55:23.238Z,64.03
2023-07-18T01:55:35.219Z,63.67
2023-07-18T01:55:47.208Z,63.63
2023-07-18T01:55:59.488Z,63.88
2023-07-18T01:56:11.570Z,63.84
2023-07-18T01:56:23.602Z,63.68
2023-07-18T01:56:35.555Z,63.80
2023-07-18T01:56:47.499Z,64.33
2023-07-18T01:56:59.488Z,64.39
2023-07-18T01:57:11.423Z,64.95
2023-07-18T01:57:24.321Z,64.73
2023-07-18T01:57:38.996Z,64.02
2023-07-18T01:57:51.249Z,64.09
2023-07-18T01:58:03.253Z,64.09
2023-07-18T01:58:15.196Z,64.39
2023-07-18T01:58:27.177Z,64.58
2023-07-18T01:58:39.164Z,64.66
2023-07-18T01:58:51.237Z,64.62
2023-07-18T01:59:03.205Z,64.28
2023-07-18T01:59:15.211Z,63.91
2023-07-18T01:59:27.251Z,63.87
2023-07-18T01:59:39.421Z,63.88
2023-07-18T01:59:51.433Z,63.75
2023-07-18T02:00:04.847Z,64.01
2023-07-18T02:00:22.772Z,64.19
2023-07-18T02:00:36.510Z,63.78
2023-07-18T02:00:48.801Z,63.67
2023-07-18T02:01:04.288Z,63.57
2023-07-18T02:01:16.534Z,63.51
2023-07-18T02:01:30.040Z,63.72
2023-07-18T02:01:42.078Z,64.03
2023-07-18T02:01:54.037Z,64.72
2023-07-18T02:02:07.559Z,65.61
2023-07-18T02:02:20.012Z,65.21
2023-07-18T02:02:32.177Z,64.64
2023-07-18T02:02:46.791Z,64.74
2023-07-18T02:02:58.980Z,64.69
2023-07-18T02:03:13.583Z,64.75
2023-07-18T02:03:25.695Z,64.51
2023-07-18T02:03:38.295Z,64.81
2023-07-18T02:03:50.292Z,64.79
2023-07-18T02:04:02.274Z,64.40
2023-07-18T02:04:15.089Z,64.97
2023-07-18T02:04:27.131Z,64.53
2023-07-18T02:04:39.502Z,64.54
2023-07-18T02:04:51.440Z,64.63
2023-07-18T02:05:05.193Z,64.44
2023-07-18T02:05:20.377Z,64.72
2023-07-18T02:05:33.455Z,64.60
2023-07-18T02:05:45.428Z,64.78
2023-07-18T02:05:57.418Z,64.58
2023-07-18T02:06:11.379Z,64.58
2023-07-18T02:06:26.057Z,64.84
2023-07-18T02:06:38.001Z,65.25
2023-07-18T02:06:49.957Z,65.58
2023-07-18T02:07:01.947Z,65.65
2023-07-18T02:07:13.927Z,65.66
2023-07-18T02:07:26.840Z,65.89
2023-07-18T02:07:38.827Z,65.82
2023-07-18T02:07:51.357Z,66.21
2023-07-18T02:08:03.484Z,66.25
2023-07-18T02:08:15.477Z,66.12
2023-07-18T02:08:27.416Z,66.12
2023-07-18T02:08:39.410Z,65.85
2023-07-18T02:08:52.370Z,65.55
2023-07-18T02:09:05.333Z,65.82
2023-07-18T02:09:17.319Z,65.33
2023-07-18T02:09:29.299Z,65.60
2023-07-18T02:09:41.264Z,65.84
2023-07-18T02:09:53.200Z,66.04
2023-07-18T02:10:06.228Z,66.17
2023-07-18T02:10:22.643Z,66.59
2023-07-18T02:10:34.728Z,66.38
2023-07-18T02:10:46.740Z,65.94
2023-07-18T02:10:58.700Z,65.67
2023-07-18T02:11:10.636Z,65.76
2023-07-18T02:11:22.692Z,65.62
2023-07-18T02:11:34.676Z,65.43
2023-07-18T02:11:46.676Z,65.54
2023-07-18T02:11:58.625Z,66.10
2023-07-18T02:12:10.852Z,66.02
2023-07-18T02:12:22.922Z,66.07
2023-07-18T02:12:34.904Z,65.71
2023-07-18T02:12:51.519Z,65.12
2023-07-18T02:13:04.201Z,65.07
2023-07-18T02:13:16.301Z,65.06
2023-07-18T02:13:28.342Z,65.13
2023-07-18T02:13:40.301Z,65.24
2023-07-18T02:13:52.289Z,64.98
2023-07-18T02:14:05.126Z,64.87
2023-07-18T02:14:20.827Z,64.83
2023-07-18T02:14:32.795Z,64.86
2023-07-18T02:14:44.749Z,64.73
2023-07-18T02:14:56.739Z,64.70
2023-07-18T02:15:09.495Z,64.84
2023-07-18T02:15:22.592Z,64.65
2023-07-18T02:15:34.689Z,64.78
2023-07-18T02:15:46.851Z,64.82
2023-07-18T02:15:58.815Z,64.86
2023-07-18T02:16:10.736Z,64.69
2023-07-18T02:16:22.751Z,64.74
2023-07-18T02:16:34.744Z,64.68
2023-07-18T02:16:46.991Z,64.70
2023-07-18T02:16:59.750Z,64.73
2023-07-18T02:17:11.861Z,65.04
2023-07-18T02:17:24.007Z,64.78
2023-07-18T02:17:36.110Z,64.70
2023-07-18T02:17:48.534Z,64.66
2023-07-18T02:18:00.599Z,64.56
2023-07-18T02:18:12.720Z,64.69
2023-07-18T02:18:24.750Z,64.72
2023-07-18T02:18:36.844Z,64.62
2023-07-18T02:18:48.916Z,64.30
2023-07-18T02:19:02.186Z,64.19
2023-07-18T02:19:14.291Z,64.40
2023-07-18T02:19:26.247Z,64.83
2023-07-18T02:19:38.241Z,64.58
2023-07-18T02:19:50.187Z,64.89
2023-07-18T02:20:07.412Z,65.22
2023-07-18T02:20:19.633Z,64.85
2023-07-18T02:20:31.726Z,65.08
2023-07-18T02:20:43.779Z,65.16
2023-07-18T02:20:55.777Z,64.99
2023-07-18T02:21:07.776Z,64.50
2023-07-18T02:21:19.953Z,64.72
2023-07-18T02:21:32.098Z,64.70
2023-07-18T02:21:44.053Z,65.54
2023-07-18T02:21:56.027Z,65.89
2023-07-18T02:22:08.070Z,65.74
2023-07-18T02:22:22.626Z,65.22
2023-07-18T02:22:35.504Z,65.48
2023-07-18T02:22:48.935Z,66.31
2023-07-18T02:23:01.756Z,66.18
2023-07-18T02:23:13.928Z,65.77
2023-07-18T02:23:25.870Z,65.99
2023-07-18T02:23:37.873Z,65.89
2023-07-18T02:23:49.856Z,65.65
2023-07-18T02:24:01.943Z,65.77
2023-07-18T02:24:13.938Z,65.50
2023-07-18T02:24:25.860Z,65.68
2023-07-18T02:24:38.855Z,65.99
2023-07-18T02:24:50.845Z,65.87
2023-07-18T02:25:03.872Z,65.69
2023-07-18T02:25:18.148Z,65.73
2023-07-18T02:25:30.164Z,65.99
2023-07-18T02:25:42.169Z,65.84
2023-07-18T02:25:54.226Z,66.11
2023-07-18T02:26:06.161Z,66.39
2023-07-18T02:26:18.176Z,66.86
2023-07-18T02:26:30.466Z,67.23
2023-07-18T02:26:42.399Z,67.00
2023-07-18T02:26:55.234Z,66.68
2023-07-18T02:27:07.282Z,66.23
2023-07-18T02:27:20.806Z,66.44
2023-07-18T02:27:34.546Z,66.29
2023-07-18T02:27:46.699Z,66.25
2023-07-18T02:27:58.781Z,66.17
2023-07-18T02:28:11.207Z,66.01
2023-07-18T02:28:23.211Z,66.91
2023-07-18T02:28:35.193Z,67.08
2023-07-18T02:28:47.136Z,66.59
2023-07-18T02:28:59.076Z,66.25
2023-07-18T02:29:11.343Z,66.13
2023-07-18T02:29:23.353Z,65.86
2023-07-18T02:29:35.327Z,65.88
2023-07-18T02:29:47.777Z,65.93
2023-07-18T02:30:01.945Z,65.99
2023-07-18T02:30:14.959Z,66.86
2023-07-18T02:30:26.932Z,67.10
2023-07-18T02:30:39.377Z,67.38
2023-07-18T02:30:53.653Z,66.54
2023-07-18T02:31:05.723Z,66.35
2023-07-18T02:31:18.469Z,66.08
2023-07-18T02:31:30.751Z,66.02
2023-07-18T02:31:43.351Z,66.05
2023-07-18T02:31:55.339Z,66.94
2023-07-18T02:32:07.487Z,66.65
2023-07-18T02:32:19.462Z,67.03
2023-07-18T02:32:31.780Z,66.86
2023-07-18T02:32:44.800Z,66.46
2023-07-18T02:32:58.406Z,66.64
2023-07-18T02:33:11.984Z,66.79
2023-07-18T02:33:24.183Z,66.86
2023-07-18T02:33:36.264Z,67.31
2023-07-18T02:33:48.386Z,67.51
2023-07-18T02:34:00.380Z,67.29
2023-07-18T02:34:12.345Z,67.39
2023-07-18T02:34:26.550Z,67.52
2023-07-18T02:34:39.529Z,67.58
2023-07-18T02:34:51.671Z,67.65
2023-07-18T02:35:03.832Z,67.65
2023-07-18T02:35:19.432Z,67.19
2023-07-18T02:35:32.151Z,67.65
2023-07-18T02:35:49.307Z,67.79
2023-07-18T02:36:01.255Z,67.39
2023-07-18T02:36:13.270Z,67.56
2023-07-18T02:36:25.780Z,67.15
2023-07-18T02:36:37.843Z,67.06
2023-07-18T02:36:50.229Z,67.00
2023-07-18T02:37:02.195Z,67.20
2023-07-18T02:37:14.214Z,67.05
2023-07-18T02:37:26.760Z,67.18
2023-07-18T02:37:38.999Z,67.79
2023-07-18T02:37:51.013Z,67.35
2023-07-18T02:38:03.108Z,67.58
2023-07-18T02:38:15.043Z,67.34
2023-07-18T02:38:27.108Z,67.64
2023-07-18T02:38:39.138Z,68.02
2023-07-18T02:38:51.523Z,67.74
2023-07-18T02:39:04.906Z,67.30
2023-07-18T02:39:16.884Z,67.58
2023-07-18T02:39:31.464Z,68.08
2023-07-18T02:39:45.306Z,68.34
2023-07-18T02:39:57.263Z,67.95
2023-07-18T02:40:10.547Z,67.42
2023-07-18T02:40:23.171Z,67.12
2023-07-18T02:40:35.134Z,67.23
2023-07-18T02:40:47.162Z,67.46
2023-07-18T02:40:59.094Z,67.05
2023-07-18T02:41:11.041Z,66.96
2023-07-18T02:41:23.063Z,66.73
2023-07-18T02:41:35.726Z,66.71
2023-07-18T02:41:47.648Z,66.39
2023-07-18T02:41:59.812Z,66.47
2023-07-18T02:42:12.551Z,66.32
2023-07-18T02:42:24.495Z,66.29
2023-07-18T02:42:37.736Z,66.43
2023-07-18T02:42:49.834Z,66.47
2023-07-18T02:43:01.846Z,66.11
2023-07-18T02:43:13.882Z,66.25